sensor_id;sensor_type;location;lat;lon;timestamp;pressure;altitude;pressure_sealevel;temperature;humidity
56876;BME280;42622;49.972;8.452;2022-12-15T00:01:36;99613.69;;;-6.39;100.00
56876;BME280;42622;49.972;8.452;2022-12-15T00:04:20;99608.53;;;-6.41;100.00
56876;BME280;42622;49.972;8.452;2022-12-15T00:07:05;99607.66;;;-6.40;100.00
56876;BME280;42622;49.972;8.452;2022-12-15T00:09:49;99608.47;;;-6.36;100.00
56876;BME280;42622;49.972;8.452;2022-12-15T00:12:34;99602.41;;;-6.31;100.00
56876;BME280;42622;49.972;8.452;2022-12-15T00:15:18;99610.97;;;-6.29;100.00
56876;BME280;42622;49.972;8.452;2022-12-15T00:18:06;99613.47;;;-6.26;100.00
56876;BME280;42622;49.972;8.452;2022-12-15T00:20:50;99610.91;;;-6.26;100.00
56876;BME280;42622;49.972;8.452;2022-12-15T00:23:35;99608.31;;;-6.24;100.00
56876;BME280;42622;49.972;8.452;2022-12-15T00:26:19;99610.03;;;-6.21;100.00
56876;BME280;42622;49.972;8.452;2022-12-15T00:29:04;99615.09;;;-6.18;100.00
56876;BME280;42622;49.972;8.452;2022-12-15T00:31:48;99621.97;;;-6.17;100.00
56876;BME280;42622;49.972;8.452;2022-12-15T00:34:32;99609.91;;;-6.15;100.00
56876;BME280;42622;49.972;8.452;2022-12-15T00:37:16;99624.44;;;-6.11;100.00
56876;BME280;42622;49.972;8.452;2022-12-15T00:40:00;99624.44;;;-6.10;100.00
56876;BME280;42622;49.972;8.452;2022-12-15T00:42:29;99626.13;;;-6.09;100.00
56876;BME280;42622;49.972;8.452;2022-12-15T00:44:57;99632.03;;;-6.02;100.00
56876;BME280;42622;49.972;8.452;2022-12-15T00:47:24;99627.75;;;-6.02;100.00
56876;BME280;42622;49.972;8.452;2022-12-15T00:49:50;99623.44;;;-6.01;100.00
56876;BME280;42622;49.972;8.452;2022-12-15T00:52:35;99631.16;;;-5.99;100.00
56876;BME280;42622;49.972;8.452;2022-12-15T00:55:20;99647.47;;;-6.02;100.00
56876;BME280;42622;49.972;8.452;2022-12-15T00:58:04;99641.56;;;-6.07;100.00
56876;BME280;42622;49.972;8.452;2022-12-15T01:00:49;99648.50;;;-6.14;100.00
56876;BME280;42622;49.972;8.452;2022-12-15T01:03:33;99666.59;;;-6.21;100.00
56876;BME280;42622;49.972;8.452;2022-12-15T01:06:19;99663.19;;;-6.23;100.00
56876;BME280;42622;49.972;8.452;2022-12-15T01:09:07;99661.56;;;-6.31;100.00
56876;BME280;42622;49.972;8.452;2022-12-15T01:11:52;99663.28;;;-6.33;100.00
56876;BME280;42622;49.972;8.452;2022-12-15T01:14:37;99663.38;;;-6.39;100.00
56876;BME280;42622;49.972;8.452;2022-12-15T01:17:21;99670.25;;;-6.41;100.00
56876;BME280;42622;49.972;8.452;2022-12-15T01:20:06;99684.03;;;-6.46;100.00
56876;BME280;42622;49.972;8.452;2022-12-15T01:22:52;99684.97;;;-6.54;100.00
56876;BME280;42622;49.972;8.452;2022-12-15T01:25:21;99684.09;;;-6.54;100.00
56876;BME280;42622;49.972;8.452;2022-12-15T01:27:50;99685.88;;;-6.59;100.00
56876;BME280;42622;49.972;8.452;2022-12-15T01:30:21;99679.06;;;-6.65;100.00
56876;BME280;42622;49.972;8.452;2022-12-15T01:32:49;99688.50;;;-6.65;100.00
56876;BME280;42622;49.972;8.452;2022-12-15T01:35:15;99692.78;;;-6.66;100.00
56876;BME280;42622;49.972;8.452;2022-12-15T01:37:42;99699.69;;;-6.69;100.00
56876;BME280;42622;49.972;8.452;2022-12-15T01:40:15;99701.47;;;-6.78;100.00
56876;BME280;42622;49.972;8.452;2022-12-15T01:43:01;99700.66;;;-6.83;100.00
56876;BME280;42622;49.972;8.452;2022-12-15T01:48:01;99704.91;;;-6.77;100.00
56876;BME280;42622;49.972;8.452;2022-12-15T01:50:30;99698.03;;;-6.77;100.00
56876;BME280;42622;49.972;8.452;2022-12-15T01:53:01;99699.72;;;-6.76;100.00
56876;BME280;42622;49.972;8.452;2022-12-15T01:55:31;99698.06;;;-6.80;100.00
56876;BME280;42622;49.972;8.452;2022-12-15T01:58:03;99702.38;;;-6.83;100.00
56876;BME280;42622;49.972;8.452;2022-12-15T02:00:32;99713.53;;;-6.86;100.00
56876;BME280;42622;49.972;8.452;2022-12-15T02:03:02;99705.00;;;-6.88;100.00
56876;BME280;42622;49.972;8.452;2022-12-15T02:05:32;99708.44;;;-6.89;100.00
56876;BME280;42622;49.972;8.452;2022-12-15T02:08:02;99708.38;;;-6.86;100.00
56876;BME280;42622;49.972;8.452;2022-12-15T02:11:07;99707.59;;;-6.92;100.00
56876;BME280;42622;49.972;8.452;2022-12-15T02:14:01;99715.34;;;-6.97;100.00
56876;BME280;42622;49.972;8.452;2022-12-15T02:17:06;99725.63;;;-6.99;100.00
56876;BME280;42622;49.972;8.452;2022-12-15T02:23:47;99728.25;;;-7.05;100.00
56876;BME280;42622;49.972;8.452;2022-12-15T02:30:13;99718.84;;;-7.10;100.00
56876;BME280;42622;49.972;8.452;2022-12-15T02:33:06;99731.72;;;-7.09;100.00
56876;BME280;42622;49.972;8.452;2022-12-15T02:35:53;99718.06;;;-7.15;100.00
56876;BME280;42622;49.972;8.452;2022-12-15T02:38:48;99723.22;;;-7.18;100.00
56876;BME280;42622;49.972;8.452;2022-12-15T02:41:36;99731.81;;;-7.26;100.00
56876;BME280;42622;49.972;8.452;2022-12-15T02:44:30;99735.31;;;-7.31;100.00
56876;BME280;42622;49.972;8.452;2022-12-15T02:47:38;99736.19;;;-7.37;100.00
56876;BME280;42622;49.972;8.452;2022-12-15T02:50:41;99731.97;;;-7.47;100.00
56876;BME280;42622;49.972;8.452;2022-12-15T02:53:52;99730.28;;;-7.53;100.00
56876;BME280;42622;49.972;8.452;2022-12-15T02:56:59;99732.06;;;-7.62;100.00
56876;BME280;42622;49.972;8.452;2022-12-15T02:59:57;99731.22;;;-7.67;100.00
56876;BME280;42622;49.972;8.452;2022-12-15T03:02:32;99734.66;;;-7.68;100.00
56876;BME280;42622;49.972;8.452;2022-12-15T03:05:03;99742.38;;;-7.70;100.00
56876;BME280;42622;49.972;8.452;2022-12-15T03:07:29;99744.94;;;-7.73;100.00
56876;BME280;42622;49.972;8.452;2022-12-15T03:09:59;99755.22;;;-7.76;100.00
56876;BME280;42622;49.972;8.452;2022-12-15T03:12:27;99755.19;;;-7.75;100.00
56876;BME280;42622;49.972;8.452;2022-12-15T03:14:53;99756.09;;;-7.80;100.00
56876;BME280;42622;49.972;8.452;2022-12-15T03:17:19;99762.09;;;-7.86;100.00
56876;BME280;42622;49.972;8.452;2022-12-15T03:19:45;99764.69;;;-7.87;100.00
56876;BME280;42622;49.972;8.452;2022-12-15T03:22:10;99772.34;;;-7.89;100.00
56876;BME280;42622;49.972;8.452;2022-12-15T03:24:36;99772.38;;;-7.92;100.00
56876;BME280;42622;49.972;8.452;2022-12-15T03:27:03;99777.50;;;-7.92;100.00
56876;BME280;42622;49.972;8.452;2022-12-15T03:29:29;99774.09;;;-7.94;100.00
56876;BME280;42622;49.972;8.452;2022-12-15T03:31:55;99779.22;;;-7.94;100.00
56876;BME280;42622;49.972;8.452;2022-12-15T03:34:20;99775.78;;;-7.93;100.00
56876;BME280;42622;49.972;8.452;2022-12-15T03:36:46;99776.66;;;-7.94;100.00
56876;BME280;42622;49.972;8.452;2022-12-15T03:39:12;99782.63;;;-7.95;100.00
56876;BME280;42622;49.972;8.452;2022-12-15T03:41:38;99781.78;;;-7.99;100.00
56876;BME280;42622;49.972;8.452;2022-12-15T03:44:04;99783.53;;;-8.04;100.00
56876;BME280;42622;49.972;8.452;2022-12-15T03:46:30;99792.06;;;-8.09;100.00
56876;BME280;42622;49.972;8.452;2022-12-15T03:48:55;99787.81;;;-8.13;100.00
56876;BME280;42622;49.972;8.452;2022-12-15T03:51:21;99791.25;;;-8.14;100.00
56876;BME280;42622;49.972;8.452;2022-12-15T03:53:47;99792.94;;;-8.13;100.00
56876;BME280;42622;49.972;8.452;2022-12-15T03:56:14;99790.41;;;-8.12;100.00
56876;BME280;42622;49.972;8.452;2022-12-15T03:58:40;99794.69;;;-8.12;100.00
56876;BME280;42622;49.972;8.452;2022-12-15T04:01:29;99792.13;;;-8.15;100.00
56876;BME280;42622;49.972;8.452;2022-12-15T04:04:00;99798.06;;;-8.17;100.00
56876;BME280;42622;49.972;8.452;2022-12-15T04:06:28;99798.06;;;-8.17;100.00
56876;BME280;42622;49.972;8.452;2022-12-15T04:08:55;99796.38;;;-8.14;100.00
56876;BME280;42622;49.972;8.452;2022-12-15T04:11:21;99803.19;;;-8.13;100.00
56876;BME280;42622;49.972;8.452;2022-12-15T04:13:46;99794.69;;;-8.12;100.00
56876;BME280;42622;49.972;8.452;2022-12-15T04:16:12;99794.66;;;-8.09;100.00
56876;BME280;42622;49.972;8.452;2022-12-15T04:18:38;99804.91;;;-8.06;100.00
56876;BME280;42622;49.972;8.452;2022-12-15T04:21:04;99805.75;;;-8.06;100.00
56876;BME280;42622;49.972;8.452;2022-12-15T04:23:29;99811.75;;;-8.05;100.00
56876;BME280;42622;49.972;8.452;2022-12-15T04:25:55;99816.88;;;-8.05;100.00
56876;BME280;42622;49.972;8.452;2022-12-15T04:28:39;99811.75;;;-8.05;100.00
56876;BME280;42622;49.972;8.452;2022-12-15T04:31:32;99815.16;;;-8.03;100.00
56876;BME280;42622;49.972;8.452;2022-12-15T04:34:22;99810.88;;;-7.98;100.00
56876;BME280;42622;49.972;8.452;2022-12-15T04:37:11;99815.13;;;-7.94;100.00
56876;BME280;42622;49.972;8.452;2022-12-15T04:39:58;99809.13;;;-7.91;100.00
56876;BME280;42622;49.972;8.452;2022-12-15T04:42:46;99804.84;;;-7.86;100.00
56876;BME280;42622;49.972;8.452;2022-12-15T04:45:31;99810.84;;;-7.86;100.00
56876;BME280;42622;49.972;8.452;2022-12-15T04:48:15;99817.66;;;-7.80;100.00
56876;BME280;42622;49.972;8.452;2022-12-15T04:50:59;99810.81;;;-7.80;100.00
56876;BME280;42622;49.972;8.452;2022-12-15T04:53:45;99818.50;;;-7.77;100.00
56876;BME280;42622;49.972;8.452;2022-12-15T04:56:31;99822.75;;;-7.73;100.00
56876;BME280;42622;49.972;8.452;2022-12-15T04:59:15;99822.75;;;-7.68;100.00
56876;BME280;42622;49.972;8.452;2022-12-15T05:02:00;99826.16;;;-7.71;100.00
56876;BME280;42622;49.972;8.452;2022-12-15T05:04:45;99833.84;;;-7.67;100.00
56876;BME280;42622;49.972;8.452;2022-12-15T05:07:29;99829.56;;;-7.67;100.00
56876;BME280;42622;49.972;8.452;2022-12-15T05:10:13;99838.97;;;-7.64;100.00
56876;BME280;42622;49.972;8.452;2022-12-15T05:13:06;99833.84;;;-7.61;100.00
56876;BME280;42622;49.972;8.452;2022-12-15T05:15:50;99826.16;;;-7.66;100.00
56876;BME280;42622;49.972;8.452;2022-12-15T05:18:35;99825.31;;;-7.68;100.00
56876;BME280;42622;49.972;8.452;2022-12-15T05:21:19;99829.59;;;-7.75;100.00
56876;BME280;42622;49.972;8.452;2022-12-15T05:24:04;99834.75;;;-7.73;100.00
56876;BME280;42622;49.972;8.452;2022-12-15T05:26:48;99835.56;;;-7.71;100.00
56876;BME280;42622;49.972;8.452;2022-12-15T05:29:33;99827.00;;;-7.65;100.00
56876;BME280;42622;49.972;8.452;2022-12-15T05:32:17;99834.66;;;-7.56;100.00
56876;BME280;42622;49.972;8.452;2022-12-15T05:34:43;99838.06;;;-7.53;100.00
56876;BME280;42622;49.972;8.452;2022-12-15T05:37:08;99837.22;;;-7.53;100.00
56876;BME280;42622;49.972;8.452;2022-12-15T05:39:34;99844.94;;;-7.58;100.00
56876;BME280;42622;49.972;8.452;2022-12-15T05:42:01;99838.09;;;-7.63;100.00
56876;BME280;42622;49.972;8.452;2022-12-15T05:44:28;99836.44;;;-7.75;100.00
56876;BME280;42622;49.972;8.452;2022-12-15T05:46:53;99833.91;;;-7.83;100.00
56876;BME280;42622;49.972;8.452;2022-12-15T05:49:20;99828.78;;;-7.92;100.00
56876;BME280;42622;49.972;8.452;2022-12-15T05:51:47;99841.66;;;-8.01;100.00
56876;BME280;42622;49.972;8.452;2022-12-15T05:54:17;99843.38;;;-8.11;100.00
56876;BME280;42622;49.972;8.452;2022-12-15T05:56:45;99849.34;;;-8.17;100.00
56876;BME280;42622;49.972;8.452;2022-12-15T05:59:12;99844.25;;;-8.23;100.00
56876;BME280;42622;49.972;8.452;2022-12-15T06:01:39;99851.09;;;-8.28;100.00
56876;BME280;42622;49.972;8.452;2022-12-15T06:04:12;99856.22;;;-8.28;100.00
56876;BME280;42622;49.972;8.452;2022-12-15T06:06:39;99863.88;;;-8.20;100.00
56876;BME280;42622;49.972;8.452;2022-12-15T06:09:06;99859.63;;;-8.07;100.00
56876;BME280;42622;49.972;8.452;2022-12-15T06:11:32;99880.13;;;-8.01;100.00
56876;BME280;42622;49.972;8.452;2022-12-15T06:13:58;99881.81;;;-7.99;100.00
56876;BME280;42622;49.972;8.452;2022-12-15T06:16:25;99880.97;;;-7.98;100.00
56876;BME280;42622;49.972;8.452;2022-12-15T06:18:59;99898.91;;;-7.91;100.00
56876;BME280;42622;49.972;8.452;2022-12-15T06:21:30;99899.75;;;-7.89;100.00
56876;BME280;42622;49.972;8.452;2022-12-15T06:24:00;99895.47;;;-7.89;100.00
56876;BME280;42622;49.972;8.452;2022-12-15T06:26:37;99892.94;;;-7.94;100.00
56876;BME280;42622;49.972;8.452;2022-12-15T06:29:06;99898.06;;;-7.97;100.00
56876;BME280;42622;49.972;8.452;2022-12-15T06:31:35;99904.03;;;-8.02;100.00
56876;BME280;42622;49.972;8.452;2022-12-15T06:34:11;99903.22;;;-8.09;100.00
56876;BME280;42622;49.972;8.452;2022-12-15T06:36:39;99910.91;;;-8.17;100.00
56876;BME280;42622;49.972;8.452;2022-12-15T06:39:07;99910.91;;;-8.20;100.00
56876;BME280;42622;49.972;8.452;2022-12-15T06:41:37;99905.78;;;-8.23;100.00
56876;BME280;42622;49.972;8.452;2022-12-15T06:44:03;99910.06;;;-8.25;100.00
56876;BME280;42622;49.972;8.452;2022-12-15T06:46:31;99917.75;;;-8.28;100.00
56876;BME280;42622;49.972;8.452;2022-12-15T06:49:00;99916.03;;;-8.32;100.00
56876;BME280;42622;49.972;8.452;2022-12-15T06:51:26;99921.16;;;-8.32;100.00
56876;BME280;42622;49.972;8.452;2022-12-15T06:53:53;99933.16;;;-8.23;100.00
56876;BME280;42622;49.972;8.452;2022-12-15T06:56:34;99920.31;;;-8.12;100.00
56876;BME280;42622;49.972;8.452;2022-12-15T06:59:04;99916.00;;;-7.95;100.00
56876;BME280;42622;49.972;8.452;2022-12-15T07:01:31;99926.25;;;-7.77;100.00
56876;BME280;42622;49.972;8.452;2022-12-15T07:03:59;99925.34;;;-7.57;100.00
56876;BME280;42622;49.972;8.452;2022-12-15T07:06:26;99917.56;;;-7.28;100.00
56876;BME280;42622;49.972;8.452;2022-12-15T07:08:53;99914.88;;;-7.04;100.00
56876;BME280;42622;49.972;8.452;2022-12-15T07:11:21;99916.50;;;-6.84;100.00
56876;BME280;42622;49.972;8.452;2022-12-15T07:13:52;99930.13;;;-6.70;100.00
56876;BME280;42622;49.972;8.452;2022-12-15T07:16:21;99914.63;;;-6.61;100.00
56876;BME280;42622;49.972;8.452;2022-12-15T07:18:47;99918.84;;;-6.51;100.00
56876;BME280;42622;49.972;8.452;2022-12-15T07:21:12;99916.25;;;-6.43;100.00
56876;BME280;42622;49.972;8.452;2022-12-15T07:23:39;99930.78;;;-6.36;100.00
56876;BME280;42622;49.972;8.452;2022-12-15T07:26:08;99934.19;;;-6.32;100.00
56876;BME280;42622;49.972;8.452;2022-12-15T07:28:36;99929.84;;;-6.27;100.00
56876;BME280;42622;49.972;8.452;2022-12-15T07:31:06;99932.38;;;-6.22;100.00
56876;BME280;42622;49.972;8.452;2022-12-15T07:33:35;99923.78;;;-6.17;100.00
56876;BME280;42622;49.972;8.452;2022-12-15T07:36:03;99915.09;;;-6.08;100.00
56876;BME280;42622;49.972;8.452;2022-12-15T07:38:30;99918.50;;;-6.03;100.00
56876;BME280;42622;49.972;8.452;2022-12-15T07:41:02;99930.47;;;-5.99;100.00
56876;BME280;42622;49.972;8.452;2022-12-15T07:43:28;99923.59;;;-5.95;100.00
56876;BME280;42622;49.972;8.452;2022-12-15T07:45:55;99927.81;;;-5.90;100.00
56876;BME280;42622;49.972;8.452;2022-12-15T07:48:21;99933.75;;;-5.85;100.00
56876;BME280;42622;49.972;8.452;2022-12-15T07:50:48;99944.84;;;-5.80;100.00
56876;BME280;42622;49.972;8.452;2022-12-15T07:53:15;99949.13;;;-5.75;100.00
56876;BME280;42622;49.972;8.452;2022-12-15T07:55:40;99956.75;;;-5.69;100.00
56876;BME280;42622;49.972;8.452;2022-12-15T07:58:06;99966.16;;;-5.64;100.00
56876;BME280;42622;49.972;8.452;2022-12-15T08:00:32;99958.38;;;-5.56;100.00
56876;BME280;42622;49.972;8.452;2022-12-15T08:03:00;99959.16;;;-5.49;100.00
56876;BME280;42622;49.972;8.452;2022-12-15T08:05:27;99964.28;;;-5.48;100.00
56876;BME280;42622;49.972;8.452;2022-12-15T08:07:53;99959.13;;;-5.48;100.00
56876;BME280;42622;49.972;8.452;2022-12-15T08:10:18;99961.72;;;-5.49;100.00
56876;BME280;42622;49.972;8.452;2022-12-15T08:12:44;99955.72;;;-5.50;100.00
56876;BME280;42622;49.972;8.452;2022-12-15T08:15:10;99957.41;;;-5.46;100.00
56876;BME280;42622;49.972;8.452;2022-12-15T08:17:36;99952.19;;;-5.41;100.00
56876;BME280;42622;49.972;8.452;2022-12-15T08:20:02;99944.41;;;-5.35;100.00
56876;BME280;42622;49.972;8.452;2022-12-15T08:22:28;99940.06;;;-5.29;100.00
56876;BME280;42622;49.972;8.452;2022-12-15T08:24:53;99939.13;;;-5.24;100.00
56876;BME280;42622;49.972;8.452;2022-12-15T08:27:19;99948.47;;;-5.14;100.00
56876;BME280;42622;49.972;8.452;2022-12-15T08:29:46;99949.28;;;-5.11;100.00
56876;BME280;42622;49.972;8.452;2022-12-15T08:32:11;99957.81;;;-5.04;100.00
56876;BME280;42622;49.972;8.452;2022-12-15T08:34:38;99956.00;;;-4.99;100.00
56876;BME280;42622;49.972;8.452;2022-12-15T08:37:07;99951.63;;;-4.91;100.00
56876;BME280;42622;49.972;8.452;2022-12-15T08:39:32;99949.00;;;-4.88;100.00
56876;BME280;42622;49.972;8.452;2022-12-15T08:41:58;99957.59;;;-4.87;100.00
56876;BME280;42622;49.972;8.452;2022-12-15T08:44:24;99965.31;;;-4.86;100.00
56876;BME280;42622;49.972;8.452;2022-12-15T08:46:49;99980.69;;;-4.79;100.00
56876;BME280;42622;49.972;8.452;2022-12-15T08:49:15;99978.06;;;-4.75;100.00
56876;BME280;42622;49.972;8.452;2022-12-15T08:51:41;99985.78;;;-4.73;100.00
56876;BME280;42622;49.972;8.452;2022-12-15T08:54:08;99978.88;;;-4.71;100.00
56876;BME280;42622;49.972;8.452;2022-12-15T08:56:35;99977.13;;;-4.69;100.00
56876;BME280;42622;49.972;8.452;2022-12-15T08:59:02;99983.91;;;-4.62;100.00
56876;BME280;42622;49.972;8.452;2022-12-15T09:01:30;99997.56;;;-4.54;100.00
56876;BME280;42622;49.972;8.452;2022-12-15T09:03:57;99976.84;;;-4.48;100.00
56876;BME280;42622;49.972;8.452;2022-12-15T09:06:31;99979.41;;;-4.46;100.00
56876;BME280;42622;49.972;8.452;2022-12-15T09:09:01;99987.94;;;-4.43;100.00
56876;BME280;42622;49.972;8.452;2022-12-15T09:11:29;99997.38;;;-4.42;100.00
56876;BME280;42622;49.972;8.452;2022-12-15T09:13:56;100004.22;;;-4.38;100.00
56876;BME280;42622;49.972;8.452;2022-12-15T09:16:23;100009.31;;;-4.33;100.00
56876;BME280;42622;49.972;8.452;2022-12-15T09:18:55;100018.63;;;-4.23;100.00
56876;BME280;42622;49.972;8.452;2022-12-15T09:21:23;100015.16;;;-4.20;100.00
56876;BME280;42622;49.972;8.452;2022-12-15T09:23:54;100011.63;;;-4.15;100.00
56876;BME280;42622;49.972;8.452;2022-12-15T09:26:25;100014.13;;;-4.10;100.00
56876;BME280;42622;49.972;8.452;2022-12-15T09:28:52;100020.09;;;-4.06;100.00
56876;BME280;42622;49.972;8.452;2022-12-15T09:31:24;100016.63;;;-4.04;100.00
56876;BME280;42622;49.972;8.452;2022-12-15T09:33:55;100022.53;;;-3.96;100.00
56876;BME280;42622;49.972;8.452;2022-12-15T09:36:25;100034.50;;;-3.89;100.00
56876;BME280;42622;49.972;8.452;2022-12-15T09:38:51;100035.34;;;-3.90;100.00
56876;BME280;42622;49.972;8.452;2022-12-15T09:41:27;100042.25;;;-3.90;100.00
56876;BME280;42622;49.972;8.452;2022-12-15T09:44:09;100031.06;;;-3.91;100.00
56876;BME280;42622;49.972;8.452;2022-12-15T09:47:16;100026.75;;;-3.89;100.00
56876;BME280;42622;49.972;8.452;2022-12-15T09:50:03;100035.34;;;-3.90;100.00
56876;BME280;42622;49.972;8.452;2022-12-15T09:52:54;100043.13;;;-3.93;100.00
56876;BME280;42622;49.972;8.452;2022-12-15T09:55:31;100040.56;;;-3.91;100.00
56876;BME280;42622;49.972;8.452;2022-12-15T10:01:01;100048.25;;;-3.90;100.00
56876;BME280;42622;49.972;8.452;2022-12-15T10:04:15;100047.44;;;-3.93;100.00
56876;BME280;42622;49.972;8.452;2022-12-15T10:07:29;100041.47;;;-3.97;100.00
56876;BME280;42622;49.972;8.452;2022-12-15T10:11:14;100055.22;;;-3.95;100.00
56876;BME280;42622;49.972;8.452;2022-12-15T10:19:58;100047.31;;;-3.86;100.00
56876;BME280;42622;49.972;8.452;2022-12-15T10:22:36;100056.84;;;-3.88;100.00
56876;BME280;42622;49.972;8.452;2022-12-15T10:25:25;100059.44;;;-3.89;100.00
56876;BME280;42622;49.972;8.452;2022-12-15T10:31:26;100040.50;;;-3.88;100.00
56876;BME280;42622;49.972;8.452;2022-12-15T10:34:09;100037.84;;;-3.83;100.00
56876;BME280;42622;49.972;8.452;2022-12-15T10:36:50;100023.13;;;-3.78;100.00
56876;BME280;42622;49.972;8.452;2022-12-15T10:39:19;100013.59;;;-3.73;100.00
56876;BME280;42622;49.972;8.452;2022-12-15T10:42:20;100026.31;;;-3.64;100.00
56876;BME280;42622;49.972;8.452;2022-12-15T10:44:58;100019.41;;;-3.62;100.00
56876;BME280;42622;49.972;8.452;2022-12-15T10:47:30;100021.91;;;-3.56;100.00
56876;BME280;42622;49.972;8.452;2022-12-15T10:50:22;100018.28;;;-3.46;100.00
56876;BME280;42622;49.972;8.452;2022-12-15T10:52:49;100014.81;;;-3.45;100.00
56876;BME280;42622;49.972;8.452;2022-12-15T10:55:37;100016.56;;;-3.45;100.00
56876;BME280;42622;49.972;8.452;2022-12-15T10:58:21;100015.66;;;-3.44;100.00
56876;BME280;42622;49.972;8.452;2022-12-15T11:01:08;100013.06;;;-3.43;100.00
56876;BME280;42622;49.972;8.452;2022-12-15T11:03:39;100007.97;;;-3.47;100.00
56876;BME280;42622;49.972;8.452;2022-12-15T11:08:49;100018.13;;;-3.37;100.00
56876;BME280;42622;49.972;8.452;2022-12-15T11:11:31;100013.75;;;-3.33;100.00
56876;BME280;42622;49.972;8.452;2022-12-15T11:14:41;99999.94;;;-3.30;100.00
56876;BME280;42622;49.972;8.452;2022-12-15T11:17:15;99990.44;;;-3.28;100.00
56876;BME280;42622;49.972;8.452;2022-12-15T11:20:05;99987.66;;;-3.19;100.00
56876;BME280;42622;49.972;8.452;2022-12-15T11:22:45;99982.53;;;-3.21;100.00
56876;BME280;42622;49.972;8.452;2022-12-15T11:25:38;99987.59;;;-3.16;100.00
56876;BME280;42622;49.972;8.452;2022-12-15T11:28:22;99982.38;;;-3.15;100.00
56876;BME280;42622;49.972;8.452;2022-12-15T11:31:20;99976.47;;;-3.20;100.00
56876;BME280;42622;49.972;8.452;2022-12-15T11:33:53;99966.03;;;-3.15;100.00
56876;BME280;42622;49.972;8.452;2022-12-15T11:46:23;99952.75;;;-2.97;100.00
56876;BME280;42622;49.972;8.452;2022-12-15T11:49:27;99941.63;;;-3.02;100.00
56876;BME280;42622;49.972;8.452;2022-12-15T11:55:25;99950.34;;;-3.06;100.00
56876;BME280;42622;49.972;8.452;2022-12-15T12:11:07;99939.06;;;-3.02;100.00
56876;BME280;42622;49.972;8.452;2022-12-15T12:19:10;99919.94;;;-2.93;100.00
56876;BME280;42622;49.972;8.452;2022-12-15T12:21:49;99919.06;;;-2.94;100.00
56876;BME280;42622;49.972;8.452;2022-12-15T12:24:30;99915.81;;;-3.03;100.00
56876;BME280;42622;49.972;8.452;2022-12-15T12:27:32;99905.44;;;-3.02;100.00
56876;BME280;42622;49.972;8.452;2022-12-15T12:30:12;99900.81;;;-2.86;100.00
56876;BME280;42622;49.972;8.452;2022-12-15T12:33:21;99888.63;;;-2.81;100.00
56876;BME280;42622;49.972;8.452;2022-12-15T12:35:59;99884.50;;;-2.90;100.00
56876;BME280;42622;49.972;8.452;2022-12-15T12:38:47;99871.59;;;-2.90;100.00
56876;BME280;42622;49.972;8.452;2022-12-15T12:41:45;99877.88;;;-3.03;100.00
56876;BME280;42622;49.972;8.452;2022-12-15T12:44:34;99876.25;;;-3.07;100.00
56876;BME280;42622;49.972;8.452;2022-12-15T12:47:29;99878.06;;;-3.12;100.00
56876;BME280;42622;49.972;8.452;2022-12-15T12:50:11;99873.16;;;-3.24;100.00
56876;BME280;42622;49.972;8.452;2022-12-15T12:52:56;99889.59;;;-3.27;100.00
56876;BME280;42622;49.972;8.452;2022-12-15T12:55:41;99885.25;;;-3.26;100.00
56876;BME280;42622;49.972;8.452;2022-12-15T13:03:41;99872.41;;;-3.29;100.00
56876;BME280;42622;49.972;8.452;2022-12-15T13:09:22;99867.38;;;-3.37;100.00
56876;BME280;42622;49.972;8.452;2022-12-15T13:14:29;99850.34;;;-3.47;100.00
56876;BME280;42622;49.972;8.452;2022-12-15T13:17:29;99847.03;;;-3.54;100.00
56876;BME280;42622;49.972;8.452;2022-12-15T13:20:18;99845.31;;;-3.53;100.00
56876;BME280;42622;49.972;8.452;2022-12-15T13:22:46;99836.69;;;-3.52;100.00
56876;BME280;42622;49.972;8.452;2022-12-15T13:25:38;99834.97;;;-3.53;100.00
56876;BME280;42622;49.972;8.452;2022-12-15T13:28:17;99833.41;;;-3.61;100.00
56876;BME280;42622;49.972;8.452;2022-12-15T13:34:16;99823.00;;;-3.57;100.00
56876;BME280;42622;49.972;8.452;2022-12-15T13:36:49;99816.81;;;-3.49;100.00
56876;BME280;42622;49.972;8.452;2022-12-15T13:44:37;99809.13;;;-3.53;100.00
56876;BME280;42622;49.972;8.452;2022-12-15T13:47:15;99810.16;;;-3.61;100.00
56876;BME280;42622;49.972;8.452;2022-12-15T13:52:44;99785.41;;;-3.71;100.00
56876;BME280;42622;49.972;8.452;2022-12-15T13:55:25;99782.06;;;-3.76;100.00
56876;BME280;42622;49.972;8.452;2022-12-15T14:00:55;99777.84;;;-3.80;100.00
56876;BME280;42622;49.972;8.452;2022-12-15T14:03:23;99783.09;;;-3.86;100.00
56876;BME280;42622;49.972;8.452;2022-12-15T14:05:59;99791.84;;;-3.92;100.00
56876;BME280;42622;49.972;8.452;2022-12-15T14:08:29;99792.75;;;-3.96;100.00
56876;BME280;42622;49.972;8.452;2022-12-15T14:11:00;99800.59;;;-3.99;100.00
56876;BME280;42622;49.972;8.452;2022-12-15T14:13:34;99798.84;;;-4.00;100.00
56876;BME280;42622;49.972;8.452;2022-12-15T14:16:19;99800.63;;;-4.02;100.00
56876;BME280;42622;49.972;8.452;2022-12-15T14:19:14;99801.47;;;-4.01;100.00
56876;BME280;42622;49.972;8.452;2022-12-15T14:22:26;99802.44;;;-4.07;100.00
56876;BME280;42622;49.972;8.452;2022-12-15T14:25:23;99806.84;;;-4.12;100.00
56876;BME280;42622;49.972;8.452;2022-12-15T14:27:54;99809.41;;;-4.12;100.00
56876;BME280;42622;49.972;8.452;2022-12-15T14:30:27;99816.28;;;-4.11;100.00
56876;BME280;42622;49.972;8.452;2022-12-15T14:35:41;99827.50;;;-4.14;100.00
56876;BME280;42622;49.972;8.452;2022-12-15T14:38:25;99847.38;;;-4.19;100.00
56876;BME280;42622;49.972;8.452;2022-12-15T14:40:56;99849.22;;;-4.24;100.00
56876;BME280;42622;49.972;8.452;2022-12-15T14:43:33;99849.31;;;-4.30;100.00
56876;BME280;42622;49.972;8.452;2022-12-15T14:46:15;99847.66;;;-4.36;100.00
56876;BME280;42622;49.972;8.452;2022-12-15T14:48:52;99858.06;;;-4.42;100.00
56876;BME280;42622;49.972;8.452;2022-12-15T14:51:20;99864.19;;;-4.47;100.00
56876;BME280;42622;49.972;8.452;2022-12-15T14:53:52;99855.69;;;-4.54;100.00
56876;BME280;42622;49.972;8.452;2022-12-15T14:58:46;99854.13;;;-4.63;100.00
56876;BME280;42622;49.972;8.452;2022-12-15T15:04:22;99856.91;;;-4.76;100.00
56876;BME280;42622;49.972;8.452;2022-12-15T15:06:54;99850.94;;;-4.82;100.00